Time;durP1;ratioP1;P1;durP2;ratioP2;P2;SDS_P1;SDS_P2;PMS_P1;PMS_P2;Temp;Humidity;BMP_temperature;BMP_pressure;BME280_temperature;BME280_humidity;BME280_pressure;Samples;Min_cycle;Max_cycle;Signal;HPM_P1;HPM_P2
2022/10/23 00:01:29;;;;;;;15.73;10.68;;;;;;;10.82;100.00;101200.94;6273076;22;20442;-85
2022/10/23 00:04:01;;;;;;;18.77;10.70;;;;;;;10.83;100.00;101208.88;6276688;22;20010;-86
2022/10/23 00:06:28;;;;;;;16.77;10.32;;;;;;;10.84;100.00;101207.06;6276373;22;20328;-85
2022/10/23 00:08:54;;;;;;;12.35;9.68;;;;;;;10.83;100.00;101211.53;6279218;22;19995;-86
2022/10/23 00:11:25;;;;;;;14.38;10.15;;;;;;;10.80;100.00;101201.00;6273248;22;20438;-85
2022/10/23 00:13:54;;;;;;;16.42;9.75;;;;;;;10.79;100.00;101193.97;6276687;22;20003;-85
2022/10/23 00:16:19;;;;;;;18.25;11.60;;;;;;;10.78;100.00;101188.69;6274928;22;20035;-84
2022/10/23 00:18:44;;;;;;;16.35;9.93;;;;;;;10.73;100.00;101184.44;6275133;22;20077;-86
2022/10/23 00:21:11;;;;;;;18.13;9.85;;;;;;;10.73;100.00;101191.56;6274349;22;20087;-87
2022/10/23 00:23:37;;;;;;;17.33;10.95;;;;;;;10.68;100.00;101186.47;6274882;22;20523;-85
2022/10/23 00:26:03;;;;;;;13.50;10.02;;;;;;;10.70;100.00;101194.38;6273187;22;20064;-84
2022/10/23 00:28:29;;;;;;;14.13;9.68;;;;;;;10.67;100.00;101191.88;6274120;22;20027;-85
2022/10/23 00:30:54;;;;;;;16.00;11.00;;;;;;;10.61;100.00;101181.47;6274382;22;20053;-84
2022/10/23 00:33:20;;;;;;;14.02;10.23;;;;;;;10.65;100.00;101189.25;6273956;22;20074;-86
2022/10/23 00:35:45;;;;;;;13.50;9.88;;;;;;;10.61;100.00;101186.81;6275385;22;20441;-85
2022/10/23 00:38:11;;;;;;;12.57;10.05;;;;;;;10.57;100.00;101195.84;6273062;22;20426;-84
2022/10/23 00:40:38;;;;;;;18.73;10.63;;;;;;;10.57;100.00;101194.06;6273361;22;19999;-84
2022/10/23 00:43:05;;;;;;;14.23;10.65;;;;;;;10.56;100.00;101188.81;6272631;22;20011;-85
2022/10/23 00:45:32;;;;;;;12.93;9.60;;;;;;;10.56;100.00;101188.81;6274292;22;20007;-87
2022/10/23 00:48:01;;;;;;;12.98;9.43;;;;;;;10.56;100.00;101188.81;6273264;22;20421;-84
2022/10/23 00:50:30;;;;;;;14.30;9.05;;;;;;;10.50;100.00;101189.97;6276057;22;19999;-85
2022/10/23 00:52:58;;;;;;;14.95;9.82;;;;;;;10.50;100.00;101186.44;6281695;22;20035;-85
2022/10/23 00:55:25;;;;;;;13.98;9.75;;;;;;;10.52;100.00;101181.91;6283156;22;20110;-85
2022/10/23 00:57:51;;;;;;;18.05;9.68;;;;;;;10.50;100.00;101189.09;6286686;22;20026;-85
2022/10/23 01:00:26;;;;;;;12.18;9.95;;;;;;;10.51;100.00;101186.38;6277606;22;20640;-85
2022/10/23 01:02:53;;;;;;;15.43;9.10;;;;;;;10.44;100.00;101177.78;6277383;22;20011;-86
2022/10/23 01:05:26;;;;;;;15.18;9.80;;;;;;;10.44;100.00;101182.25;6277047;22;20034;-85
2022/10/23 01:08:20;;;;;;;14.95;9.57;;;;;;;10.44;100.00;101168.94;6275747;22;19999;-85
2022/10/23 01:10:56;;;;;;;12.35;9.57;;;;;;;10.41;100.00;101164.63;6278122;22;20325;-85
2022/10/23 01:13:42;;;;;;;15.35;9.40;;;;;;;10.42;100.00;101179.66;6277116;22;20517;-85
2022/10/23 01:16:15;;;;;;;12.02;9.02;;;;;;;10.38;100.00;101178.06;6276420;22;20003;-85
2022/10/23 01:18:52;;;;;;;13.38;9.27;;;;;;;10.34;100.00;101176.47;6276265;22;20038;-85
2022/10/23 01:21:29;;;;;;;15.82;9.90;;;;;;;10.27;100.00;101180.34;6275876;22;20417;-84
2022/10/23 01:24:21;;;;;;;14.45;9.57;;;;;;;10.23;100.00;101178.72;6273531;22;20058;-86
2022/10/23 01:26:57;;;;;;;15.30;10.10;;;;;;;10.19;100.00;101167.34;6273993;22;20602;-85
2022/10/23 01:29:38;;;;;;;17.98;10.48;;;;;;;10.14;100.00;101166.69;6273264;22;20441;-85
2022/10/23 01:32:13;;;;;;;15.23;10.25;;;;;;;10.11;100.00;101165.94;6270362;22;20003;-85
2022/10/23 01:35:17;;;;;;;13.52;10.32;;;;;;;10.17;100.00;101157.72;6273553;22;20011;-86
2022/10/23 01:37:45;;;;;;;14.27;10.88;;;;;;;10.16;100.00;101145.34;6271009;22;20012;-85
2022/10/23 01:40:23;;;;;;;12.35;10.50;;;;;;;10.22;100.00;101150.38;6272183;22;20003;-85
2022/10/23 01:42:53;;;;;;;18.58;11.55;;;;;;;10.27;100.00;101144.88;6272534;22;20011;-85
2022/10/23 01:45:52;;;;;;;16.67;11.02;;;;;;;10.25;100.00;101138.78;6272869;22;20010;-86
2022/10/23 01:48:23;;;;;;;15.10;10.88;;;;;;;10.21;100.00;101135.38;6271868;22;19999;-85
2022/10/23 01:50:51;;;;;;;14.88;11.25;;;;;;;10.28;100.00;101127.97;6271531;22;20071;-85
2022/10/23 01:53:19;;;;;;;13.50;10.70;;;;;;;10.28;100.00;101131.50;6270951;22;20086;-85
2022/10/23 01:55:46;;;;;;;15.30;11.20;;;;;;;10.31;100.00;101136.69;6269321;22;20041;-85
2022/10/23 01:58:14;;;;;;;19.63;11.60;;;;;;;10.38;100.00;101134.63;6272177;22;20008;-83
2022/10/23 02:00:43;;;;;;;16.70;11.98;;;;;;;10.40;100.00;101135.41;6271039;22;20019;-85
2022/10/23 02:03:11;;;;;;;18.45;12.00;;;;;;;10.41;100.00;101135.38;6272041;22;20000;-86
2022/10/23 02:05:38;;;;;;;17.92;11.35;;;;;;;10.40;100.00;101124.78;6273845;22;20051;-86
2022/10/23 02:08:04;;;;;;;16.50;12.00;;;;;;;10.46;100.00;101132.50;6272781;22;19999;-85
2022/10/23 02:11:07;;;;;;;19.02;11.38;;;;;;;10.50;100.00;101134.06;6274072;22;20257;-86
2022/10/23 02:13:41;;;;;;;16.27;11.65;;;;;;;10.52;100.00;101131.34;6254670;22;20082;-85
2022/10/23 02:16:06;;;;;;;18.38;12.15;;;;;;;10.53;100.00;101122.41;6273669;22;20003;-85
2022/10/23 02:18:44;;;;;;;18.83;12.20;;;;;;;10.54;100.00;101129.47;6273890;22;20061;-85
2022/10/23 02:21:14;;;;;;;14.32;11.13;;;;;;;10.50;100.00;101123.44;6271868;22;20008;-86
2022/10/23 02:23:58;;;;;;;18.10;11.68;;;;;;;10.53;100.00;101122.41;6270288;22;19999;-85
2022/10/23 02:26:30;;;;;;;19.45;11.52;;;;;;;10.55;100.00;101120.56;6271845;22;20026;-85
2022/10/23 02:29:06;;;;;;;16.25;11.43;;;;;;;10.57;100.00;101118.66;6279811;22;20048;-86
2022/10/23 02:31:32;;;;;;;18.90;11.65;;;;;;;10.60;100.00;101121.19;6278404;22;19999;-86
2022/10/23 02:33:57;;;;;;;17.88;11.93;;;;;;;10.61;100.00;101118.44;6275605;22;20010;-86
2022/10/23 02:36:22;;;;;;;17.77;11.63;;;;;;;10.67;100.00;101118.19;6276386;22;20007;-85
2022/10/23 02:38:48;;;;;;;20.45;11.50;;;;;;;10.66;100.00;101108.47;6279536;22;20007;-85
2022/10/23 02:41:44;;;;;;;17.15;11.13;;;;;;;10.69;100.00;101104.78;6278160;22;20003;-86
2022/10/23 02:44:27;;;;;;;15.98;10.45;;;;;;;10.71;100.00;101089.63;6276971;22;20054;-85
2022/10/23 02:47:13;;;;;;;21.98;12.10;;;;;;;10.69;100.00;101080.84;6272881;22;20094;-84
2022/10/23 02:49:50;;;;;;;17.65;10.73;;;;;;;10.68;100.00;101073.78;6271597;22;20429;-85
2022/10/23 02:52:53;;;;;;;14.95;11.45;;;;;;;10.71;100.00;101063.00;6267174;22;20477;-86
2022/10/23 02:55:30;;;;;;;20.75;12.00;;;;;;;10.70;100.00;101050.59;6267117;22;20110;-85
2022/10/23 02:58:07;;;;;;;19.23;12.02;;;;;;;10.76;100.00;101054.78;6270057;22;20486;-85
2022/10/23 03:00:36;;;;;;;15.27;11.20;;;;;;;10.78;100.00;101042.25;6271631;22;20448;-86
2022/10/23 03:03:08;;;;;;;19.02;12.35;;;;;;;10.77;100.00;101041.41;6269402;22;20463;-86
2022/10/23 03:05:37;;;;;;;17.08;11.18;;;;;;;10.80;100.00;101040.41;6268212;22;20018;-85
2022/10/23 03:08:04;;;;;;;13.63;11.05;;;;;;;10.79;100.00;101039.53;6269248;22;20009;-86
2022/10/23 03:10:29;;;;;;;15.95;11.70;;;;;;;10.79;100.00;101034.22;6270149;22;20008;-85
2022/10/23 03:12:55;;;;;;;17.17;11.13;;;;;;;10.78;100.00;101031.59;6271000;22;20018;-86
2022/10/23 03:15:20;;;;;;;18.80;11.48;;;;;;;10.79;100.00;101039.53;6272101;22;20663;-86
2022/10/23 03:17:45;;;;;;;13.52;11.15;;;;;;;10.76;100.00;101028.16;6272691;22;20497;-86
2022/10/23 03:20:11;;;;;;;17.38;11.98;;;;;;;10.80;100.00;101027.94;6270004;22;20004;-86
2022/10/23 03:22:37;;;;;;;20.77;12.20;;;;;;;10.79;100.00;101023.56;6270598;22;20000;-85
2022/10/23 03:25:02;;;;;;;16.55;11.45;;;;;;;10.80;100.00;101013.78;6271997;22;19992;-86
2022/10/23 03:27:28;;;;;;;13.65;10.90;;;;;;;10.82;100.00;101004.75;6273712;22;20017;-85
2022/10/23 03:29:53;;;;;;;15.32;10.98;;;;;;;10.85;100.00;101009.94;6272728;22;20018;-85
2022/10/23 03:32:18;;;;;;;14.98;10.52;;;;;;;10.87;100.00;101009.88;6270666;22;20011;-86
2022/10/23 03:34:44;;;;;;;17.27;10.93;;;;;;;10.89;100.00;101005.31;6274991;22;20007;-86
2022/10/23 03:37:09;;;;;;;15.32;11.57;;;;;;;10.88;100.00;101007.13;6274194;22;20031;-86
2022/10/23 03:39:34;;;;;;;14.88;11.07;;;;;;;10.89;100.00;100998.19;6275419;22;20110;-86
2022/10/23 03:41:59;;;;;;;18.08;10.88;;;;;;;10.89;100.00;100995.53;6277032;22;19999;-85
2022/10/23 03:44:25;;;;;;;16.15;10.68;;;;;;;10.98;100.00;101002.19;6275400;22;20008;-86
2022/10/23 03:46:50;;;;;;;14.50;10.63;;;;;;;10.99;100.00;100998.59;6274635;22;20800;-86
2022/10/23 03:49:15;;;;;;;17.42;10.45;;;;;;;11.01;100.00;100993.19;6272937;22;20023;-84
2022/10/23 03:51:41;;;;;;;15.25;10.10;;;;;;;11.06;100.00;101004.47;6271564;22;19999;-85
2022/10/23 03:54:10;;;;;;;16.20;10.18;;;;;;;11.09;100.00;100993.69;6273654;22;20085;-84
2022/10/23 03:56:35;;;;;;;14.77;10.10;;;;;;;11.10;100.00;100993.59;6274120;22;20026;-85
2022/10/23 03:59:00;;;;;;;14.02;9.75;;;;;;;11.09;100.00;100980.34;6272691;22;20059;-86
2022/10/23 04:01:26;;;;;;;15.48;10.32;;;;;;;11.10;100.00;100980.28;6272049;22;20008;-84
2022/10/23 04:03:51;;;;;;;14.82;10.63;;;;;;;11.08;100.00;100974.19;6271413;22;20075;-84
2022/10/23 04:06:16;;;;;;;14.00;10.02;;;;;;;11.04;100.00;100956.63;6272181;22;20043;-86
2022/10/23 04:08:43;;;;;;;14.45;9.68;;;;;;;11.10;100.00;100952.78;6274166;22;20061;-85
2022/10/23 04:11:09;;;;;;;14.73;10.10;;;;;;;11.14;100.00;100959.66;6271948;22;19995;-85
2022/10/23 04:13:34;;;;;;;12.65;10.20;;;;;;;11.14;100.00;100960.53;6273127;22;20026;-86
2022/10/23 04:15:59;;;;;;;14.77;9.65;;;;;;;11.13;100.00;100953.47;6273814;22;20103;-87
2022/10/23 04:18:25;;;;;;;15.25;9.93;;;;;;;11.12;100.00;100946.44;6272752;22;20014;-86
2022/10/23 04:20:50;;;;;;;15.27;9.48;;;;;;;11.12;100.00;100942.88;6271252;22;20499;-86
2022/10/23 04:23:16;;;;;;;15.30;9.70;;;;;;;11.14;100.00;100957.88;6272118;22;20007;-85
2022/10/23 04:25:41;;;;;;;13.60;10.02;;;;;;;11.15;100.00;100956.91;6275223;22;20065;-85
2022/10/23 04:28:07;;;;;;;13.23;9.77;;;;;;;11.10;100.00;100956.28;6271239;22;20031;-85
2022/10/23 04:30:32;;;;;;;14.90;10.20;;;;;;;11.15;100.00;100956.06;6272831;22;20003;-85
2022/10/23 04:32:57;;;;;;;16.45;9.98;;;;;;;11.14;100.00;100951.69;6273850;22;20023;-86
2022/10/23 04:35:23;;;;;;;13.55;9.77;;;;;;;11.12;100.00;100948.22;6273661;22;20007;-85
2022/10/23 04:37:48;;;;;;;13.35;9.25;;;;;;;11.13;100.00;100961.47;6273033;22;20012;-85
2022/10/23 04:40:13;;;;;;;15.70;10.20;;;;;;;11.13;100.00;100964.13;6272981;22;20434;-86
2022/10/23 04:42:39;;;;;;;11.07;8.75;;;;;;;11.12;100.00;100959.75;6274095;22;20008;-85
2022/10/23 04:45:05;;;;;;;12.60;8.80;;;;;;;11.11;100.00;100958.00;6274279;22;20011;-85
2022/10/23 04:47:30;;;;;;;14.10;9.68;;;;;;;11.10;100.00;100950.13;6278741;22;20055;-86
2022/10/23 04:49:55;;;;;;;14.98;9.23;;;;;;;11.09;100.00;100954.56;6278021;22;20026;-85
2022/10/23 04:52:21;;;;;;;14.77;9.25;;;;;;;11.09;100.00;100948.41;6275981;22;20061;-86
2022/10/23 04:54:47;;;;;;;14.43;9.27;;;;;;;11.06;100.00;100952.06;6276296;22;20014;-86
2022/10/23 04:57:12;;;;;;;14.52;9.05;;;;;;;11.05;100.00;100945.03;6274825;22;20437;-85
2022/10/23 04:59:37;;;;;;;16.40;9.70;;;;;;;11.04;100.00;100943.31;6274804;22;20007;-85
2022/10/23 05:02:03;;;;;;;14.50;8.48;;;;;;;11.02;100.00;100938.97;6271180;22;19999;-84
2022/10/23 05:04:28;;;;;;;12.55;8.98;;;;;;;11.04;100.00;100935.31;6274283;22;20004;-86
2022/10/23 05:06:53;;;;;;;14.70;8.90;;;;;;;11.04;100.00;100937.97;6274059;22;20010;-85
2022/10/23 05:09:19;;;;;;;15.43;9.57;;;;;;;11.02;100.00;100939.84;6274114;22;20010;-85
2022/10/23 05:11:44;;;;;;;15.55;9.40;;;;;;;11.01;100.00;100938.13;6274151;22;20533;-86
2022/10/23 05:14:09;;;;;;;14.82;9.15;;;;;;;11.03;100.00;100935.38;6273058;22;20007;-86
2022/10/23 05:16:41;;;;;;;12.57;8.27;;;;;;;11.05;100.00;100928.19;6274333;22;19999;-85
2022/10/23 05:19:09;;;;;;;11.93;8.40;;;;;;;11.03;100.00;100935.38;6273901;22;19999;-86
2022/10/23 05:21:37;;;;;;;12.43;8.30;;;;;;;11.04;100.00;100923.81;6270583;22;20378;-85
2022/10/23 05:24:03;;;;;;;12.30;8.02;;;;;;;11.04;100.00;100921.13;6276867;22;20010;-86
2022/10/23 05:26:30;;;;;;;12.38;8.07;;;;;;;11.03;100.00;100925.56;6283708;22;20004;-85
2022/10/23 05:28:55;;;;;;;13.10;8.43;;;;;;;10.98;100.00;100917.81;6282325;22;20003;-85
2022/10/23 05:31:22;;;;;;;13.07;8.77;;;;;;;10.93;100.00;100919.00;6281246;22;20004;-85
2022/10/23 05:33:48;;;;;;;12.50;8.50;;;;;;;10.92;100.00;100918.16;6278499;22;20015;-85
2022/10/23 05:36:14;;;;;;;14.13;8.43;;;;;;;10.87;100.00;100904.22;6279145;22;20000;-86
2022/10/23 05:38:40;;;;;;;17.55;8.75;;;;;;;10.86;100.00;100907.81;6279949;22;20000;-86
2022/10/23 05:41:05;;;;;;;16.65;8.75;;;;;;;10.83;100.00;100904.47;6275476;22;20484;-86
2022/10/23 05:43:30;;;;;;;12.25;8.73;;;;;;;10.84;100.00;100909.69;6275953;22;20007;-86
2022/10/23 05:45:56;;;;;;;17.13;9.05;;;;;;;10.86;100.00;100904.28;6276825;22;20004;-85
2022/10/23 05:48:22;;;;;;;13.90;8.57;;;;;;;10.82;100.00;100906.22;6275237;22;20376;-86
2022/10/23 05:50:47;;;;;;;12.15;7.50;;;;;;;10.83;100.00;100904.47;6274815;22;20010;-85
2022/10/23 05:53:13;;;;;;;16.83;9.13;;;;;;;10.84;100.00;100908.84;6275801;22;20035;-86
2022/10/23 05:55:38;;;;;;;15.30;8.38;;;;;;;10.83;100.00;100907.97;6274366;22;19999;-85
2022/10/23 05:58:04;;;;;;;15.27;8.52;;;;;;;10.81;100.00;100893.88;6270918;22;20418;-84
2022/10/23 06:00:29;;;;;;;14.82;8.88;;;;;;;10.87;100.00;100893.56;6270429;22;20019;-85
2022/10/23 06:02:57;;;;;;;16.50;8.55;;;;;;;10.89;100.00;100897.00;6270727;22;20034;-86
2022/10/23 06:05:23;;;;;;;11.40;8.30;;;;;;;10.88;100.00;100889.09;6273175;22;20061;-86
2022/10/23 06:07:48;;;;;;;12.55;8.88;;;;;;;10.92;100.00;100893.34;6272026;22;20015;-86
2022/10/23 06:10:13;;;;;;;17.20;8.18;;;;;;;10.92;100.00;100888.00;6272637;22;20014;-85
2022/10/23 06:12:39;;;;;;;13.00;8.35;;;;;;;10.88;100.00;100878.44;6272535;22;19996;-85
2022/10/23 06:15:05;;;;;;;13.27;8.02;;;;;;;10.93;100.00;100882.59;6276385;22;20480;-85
2022/10/23 06:17:30;;;;;;;11.30;8.18;;;;;;;10.98;100.00;100885.00;6277583;22;20004;-86
2022/10/23 06:20:01;;;;;;;17.70;8.13;;;;;;;11.01;100.00;100884.84;6276822;22;20003;-85
2022/10/23 06:22:28;;;;;;;11.88;8.10;;;;;;;11.08;100.00;100891.59;6278338;22;20006;-86
2022/10/23 06:24:53;;;;;;;9.00;7.40;;;;;;;11.10;100.00;100884.38;6274228;22;20011;-82
2022/10/23 06:27:19;;;;;;;11.45;8.68;;;;;;;11.14;100.00;100880.59;6273924;22;20003;-86
2022/10/23 06:29:44;;;;;;;11.75;8.50;;;;;;;11.18;100.00;100882.16;6281314;22;20003;-87
2022/10/23 06:32:09;;;;;;;12.63;7.82;;;;;;;11.21;100.00;100884.69;6273521;22;20003;-86
2022/10/23 06:34:34;;;;;;;13.18;7.43;;;;;;;11.23;100.00;100876.59;6272572;22;20014;-84
2022/10/23 06:37:00;;;;;;;13.88;7.38;;;;;;;11.27;100.00;100879.97;6271920;22;20026;-83
2022/10/23 06:39:25;;;;;;;9.27;6.93;;;;;;;11.30;100.00;100871.81;6271202;22;20034;-85
2022/10/23 06:41:50;;;;;;;11.18;6.93;;;;;;;11.31;100.00;100865.53;6272056;22;19999;-82
2022/10/23 06:44:16;;;;;;;12.23;7.70;;;;;;;11.35;100.00;100856.44;6271776;22;20006;-83
2022/10/23 06:46:45;;;;;;;11.07;6.95;;;;;;;11.35;100.00;100857.28;6271747;22;20030;-84
2022/10/23 06:49:11;;;;;;;12.45;6.90;;;;;;;11.34;100.00;100855.56;6270217;22;20007;-84
2022/10/23 06:51:36;;;;;;;12.07;7.20;;;;;;;11.37;100.00;100852.75;6270407;22;20000;-81
2022/10/23 06:54:01;;;;;;;13.40;6.68;;;;;;;11.40;100.00;100855.22;6270342;22;20010;-84
2022/10/23 06:56:28;;;;;;;9.90;6.80;;;;;;;11.43;100.00;100854.22;6273571;22;20035;-83
2022/10/23 06:58:53;;;;;;;14.15;6.97;;;;;;;11.43;100.00;100839.09;6271745;22;20004;-84
2022/10/23 07:01:18;;;;;;;14.02;7.18;;;;;;;11.51;100.00;100844.00;6270451;22;20053;-84
2022/10/23 07:03:44;;;;;;;8.98;6.10;;;;;;;11.54;100.00;100846.50;6271680;22;20010;-85
2022/10/23 07:06:09;;;;;;;11.48;6.22;;;;;;;11.57;100.00;100845.47;6269893;22;20374;-83
2022/10/23 07:08:35;;;;;;;10.05;6.03;;;;;;;11.62;100.00;100848.72;6270976;22;20019;-81
2022/10/23 07:11:05;;;;;;;11.82;6.40;;;;;;;11.65;100.00;100851.22;6268642;22;20076;-84
2022/10/23 07:13:33;;;;;;;13.07;6.43;;;;;;;11.65;100.00;100854.75;6271088;22;20397;-84
2022/10/23 07:15:58;;;;;;;13.45;6.53;;;;;;;11.68;100.00;100848.41;6270791;22;20050;-84
2022/10/23 07:18:24;;;;;;;12.88;6.22;;;;;;;11.70;100.00;100841.16;6271066;22;20352;-83
2022/10/23 07:20:56;;;;;;;10.32;5.93;;;;;;;11.75;100.00;100843.59;6270033;22;20030;-84
2022/10/23 07:23:21;;;;;;;11.15;6.70;;;;;;;11.79;100.00;100837.13;6271348;22;20011;-84
2022/10/23 07:25:47;;;;;;;10.68;5.88;;;;;;;11.84;100.00;100832.44;6271220;22;20010;-83
2022/10/23 07:28:13;;;;;;;6.95;5.90;;;;;;;11.91;100.00;100828.47;6271211;22;20061;-84
2022/10/23 07:30:39;;;;;;;10.20;6.18;;;;;;;11.97;100.00;100828.13;6270492;22;20370;-83
2022/10/23 07:33:05;;;;;;;9.45;6.38;;;;;;;12.01;100.00;100812.81;6270853;22;20008;-84
2022/10/23 07:35:30;;;;;;;10.38;6.28;;;;;;;12.09;100.00;100818.56;6270694;22;20483;-83
2022/10/23 07:37:58;;;;;;;11.65;6.82;;;;;;;12.08;100.00;100815.06;6270785;22;20003;-83
2022/10/23 07:40:24;;;;;;;9.25;6.55;;;;;;;12.12;100.00;100815.72;6267969;22;20087;-85
2022/10/23 07:42:49;;;;;;;12.10;6.93;;;;;;;12.17;100.00;100813.66;6271551;22;20016;-84
2022/10/23 07:45:14;;;;;;;9.07;6.78;;;;;;;12.19;100.00;100812.59;6272180;22;20004;-83
2022/10/23 07:47:40;;;;;;;16.27;6.68;;;;;;;12.21;100.00;100804.53;6273308;22;20007;-84
2022/10/23 07:50:05;;;;;;;12.43;6.97;;;;;;;12.29;100.00;100817.41;6271267;22;20355;-85
2022/10/23 07:52:31;;;;;;;9.38;6.95;;;;;;;12.32;100.00;100811.88;6273471;22;20008;-86
2022/10/23 07:54:56;;;;;;;13.10;7.28;;;;;;;12.35;100.00;100807.22;6272868;22;20003;-84
2022/10/23 07:57:22;;;;;;;33.33;9.80;;;;;;;12.36;100.00;100803.59;6272256;22;20854;-83
2022/10/23 07:59:47;;;;;;;16.40;8.23;;;;;;;12.45;100.00;100807.53;6273685;22;20027;-84
2022/10/23 08:02:15;;;;;;;12.02;7.20;;;;;;;12.50;100.00;100807.25;6274461;22;20004;-83
2022/10/23 08:04:40;;;;;;;9.38;6.68;;;;;;;12.59;100.00;100812.94;6274046;22;20390;-85
2022/10/23 08:07:05;;;;;;;8.95;6.72;;;;;;;12.67;100.00;100817.81;6274918;22;20007;-84
2022/10/23 08:09:33;;;;;;;10.00;7.18;;;;;;;12.76;100.00;100819.09;6274121;22;20011;-84
2022/10/23 08:11:58;;;;;;;9.52;7.43;;;;;;;12.83;100.00;100817.75;6274425;22;20003;-86
2022/10/23 08:14:24;;;;;;;9.77;6.68;;;;;;;12.89;100.00;100810.22;6273374;22;20079;-85
2022/10/23 08:16:49;;;;;;;9.27;6.53;;;;;;;12.90;100.00;100809.25;6274671;22;20051;-84
2022/10/23 08:19:14;;;;;;;10.30;7.00;;;;;;;12.98;100.00;100807.94;6273150;22;20038;-84
2022/10/23 08:21:40;;;;;;;9.98;6.63;;;;;;;13.04;100.00;100807.56;6273680;22;20092;-83
2022/10/23 08:24:05;;;;;;;21.67;8.25;;;;;;;13.08;100.00;100812.59;6275413;22;20027;-85
2022/10/23 08:26:30;;;;;;;10.30;6.70;;;;;;;13.08;100.00;100785.03;6283323;22;20000;-84
2022/10/23 08:28:59;;;;;;;8.68;6.07;;;;;;;13.21;100.00;100804.72;6276856;22;20487;-85
2022/10/23 08:31:25;;;;;;;7.80;6.03;;;;;;;13.24;100.00;100796.53;6274760;22;19999;-87
2022/10/23 08:33:50;;;;;;;12.35;6.80;;;;;;;13.24;100.00;100790.31;6274803;22;20003;-86
2022/10/23 08:36:20;;;;;;;10.68;6.35;;;;;;;13.30;100.00;100795.28;6275075;22;20015;-85
2022/10/23 08:38:45;;;;;;;10.75;6.20;;;;;;;13.34;100.00;100792.34;6274304;22;20065;-84
2022/10/23 08:41:17;;;;;;;10.05;6.30;;;;;;;13.35;100.00;100783.34;6272527;22;20356;-86
2022/10/23 08:43:46;;;;;;;8.95;5.70;;;;;;;13.36;100.00;100786.88;6273381;22;20004;-85
2022/10/23 08:46:18;;;;;;;8.35;5.80;;;;;;;13.37;100.00;100780.56;6271554;22;20072;-85
2022/10/23 08:49:12;;;;;;;10.30;5.63;;;;;;;13.39;100.00;100776.84;6270486;22;20015;-84
2022/10/23 08:51:41;;;;;;;9.45;5.88;;;;;;;13.43;100.00;100764.16;6271217;22;20033;-83
2022/10/23 08:54:14;;;;;;;9.82;6.00;;;;;;;13.58;100.00;100778.34;6271670;22;20008;-83
2022/10/23 08:56:44;;;;;;;8.55;6.00;;;;;;;13.70;100.00;100773.03;6269312;22;20380;-84
2022/10/23 08:59:38;;;;;;;9.02;5.93;;;;;;;13.74;100.00;100764.84;6270048;22;20022;-84
2022/10/23 09:02:13;;;;;;;;;;;;;;;13.79;100.00;100754.69;6272155;22;20008;-84
2022/10/23 09:04:40;;;;;;;9.23;6.00;;;;;;;13.70;100.00;100750.78;6276323;22;19907;-83
2022/10/23 09:07:49;;;;;;;8.50;6.13;;;;;;;13.74;100.00;100746.09;6272217;22;20449;-84
2022/10/23 09:10:28;;;;;;;7.40;5.65;;;;;;;13.76;100.00;100755.75;6272880;22;20018;-84
2022/10/23 09:13:16;;;;;;;11.20;6.32;;;;;;;13.79;100.00;100742.16;6270496;22;20191;-84
2022/10/23 09:15:49;;;;;;;14.52;6.53;;;;;;;13.88;100.00;100735.38;6272428;22;20014;-84
2022/10/23 09:18:16;;;;;;;11.18;6.20;;;;;;;13.95;100.00;100740.19;6272273;22;20016;-84
2022/10/23 09:20:44;;;;;;;10.02;5.70;;;;;;;13.99;100.00;100737.31;6275476;22;20046;-85
2022/10/23 09:23:20;;;;;;;8.95;5.68;;;;;;;14.05;100.00;100734.25;6276403;22;20019;-84
2022/10/23 09:25:49;;;;;;;8.73;5.88;;;;;;;14.09;100.00;100736.63;6275955;22;20010;-83
2022/10/23 09:28:20;;;;;;;13.73;6.38;;;;;;;14.09;100.00;100725.06;6272056;22;20456;-85
2022/10/23 09:30:46;;;;;;;10.20;5.53;;;;;;;14.14;100.00;100729.13;6275552;22;20004;-84
2022/10/23 09:33:20;;;;;;;9.85;5.10;;;;;;;14.19;100.00;100718.09;6274698;22;20038;-83
2022/10/23 09:36:05;;;;;;;11.63;5.13;;;;;;;14.27;100.00;100709.56;6277913;22;20040;-84
2022/10/23 09:38:37;;;;;;;7.57;4.70;;;;;;;14.30;100.00;100695.97;6278516;22;20026;-83
2022/10/23 09:41:09;;;;;;;9.05;5.25;;;;;;;14.33;100.00;100699.25;6273175;22;20011;-83
2022/10/23 09:43:35;;;;;;;8.93;5.03;;;;;;;14.36;100.00;100693.72;6273007;22;20011;-83
2022/10/23 09:46:03;;;;;;;8.40;4.90;;;;;;;14.38;99.95;100689.13;6273596;22;20003;-82
2022/10/23 09:48:29;;;;;;;6.68;4.95;;;;;;;14.39;99.44;100698.84;6272573;22;20378;-83
2022/10/23 09:50:57;;;;;;;7.30;4.45;;;;;;;14.34;99.69;100697.47;6277173;22;20014;-85
2022/10/23 09:53:25;;;;;;;11.45;4.55;;;;;;;14.36;99.75;100687.50;6273449;22;20183;-85
2022/10/23 09:55:55;;;;;;;8.93;4.53;;;;;;;14.43;99.76;100697.69;6273768;22;20079;-82
2022/10/23 09:58:50;;;;;;;6.72;4.60;;;;;;;14.52;100.00;100698.03;6270070;22;20014;-82
2022/10/23 10:01:26;;;;;;;7.53;4.68;;;;;;;14.55;99.27;100681.78;6268627;22;20332;-82
2022/10/23 10:03:52;;;;;;;7.50;4.60;;;;;;;14.62;99.10;100673.16;6272169;22;20004;-82
2022/10/23 10:06:35;;;;;;;6.63;4.15;;;;;;;14.70;99.26;100683.34;6272583;22;20007;-81
2022/10/23 10:09:07;;;;;;;7.22;4.32;;;;;;;14.70;98.52;100676.16;6271969;22;20424;-82
2022/10/23 10:11:43;;;;;;;8.63;4.43;;;;;;;14.70;97.98;100665.44;6271622;22;20448;-83
2022/10/23 10:14:32;;;;;;;7.88;4.25;;;;;;;14.72;98.89;100661.81;6268938;22;20008;-81
2022/10/23 10:17:24;;;;;;;7.30;4.00;;;;;;;14.67;98.42;100644.25;6268589;22;20056;-82
2022/10/23 10:20:01;;;;;;;6.97;4.38;;;;;;;14.71;98.59;100647.56;6268094;22;20008;-83
2022/10/23 10:22:41;;;;;;;8.18;4.68;;;;;;;14.78;98.67;100632.75;6269416;22;20429;-83
2022/10/23 10:25:26;;;;;;;9.40;4.60;;;;;;;14.80;98.52;100627.31;6269475;22;20039;-82
2022/10/23 10:28:21;;;;;;;9.32;5.03;;;;;;;14.84;98.27;100628.78;6269197;22;20010;-82
2022/10/23 10:30:55;;;;;;;10.68;5.20;;;;;;;14.85;97.76;100631.34;6270776;22;20007;-82
2022/10/23 10:33:33;;;;;;;8.45;5.07;;;;;;;15.02;97.38;100646.22;6267041;22;20679;-82
2022/10/23 10:36:07;;;;;;;7.57;4.93;;;;;;;15.24;97.45;100650.88;6270240;22;20003;-82
2022/10/23 10:38:53;;;;;;;8.13;5.35;;;;;;;15.52;95.92;100640.78;6267608;22;20004;-81
2022/10/23 10:41:49;;;;;;;7.53;5.00;;;;;;;15.75;95.45;100631.03;6269066;22;20380;-82
2022/10/23 10:44:42;;;;;;;9.32;5.20;;;;;;;15.88;92.80;100621.06;6269838;22;20012;-82
2022/10/23 10:47:46;;;;;;;11.32;5.60;;;;;;;16.09;92.72;100623.91;6270001;22;20385;-82
2022/10/23 10:50:21;;;;;;;12.57;5.78;;;;;;;16.40;89.51;100615.19;6237150;22;20014;-83
2022/10/23 10:52:58;;;;;;;7.93;4.78;;;;;;;16.64;86.98;100611.56;6272630;22;20057;-84
2022/10/23 10:55:41;;;;;;;9.73;5.03;;;;;;;16.87;88.31;100601.66;6271976;22;20333;-82
2022/10/23 10:58:37;;;;;;;7.30;4.97;;;;;;;16.96;86.88;100589.28;6271127;22;20043;-83
2022/10/23 11:01:13;;;;;;;7.07;4.50;;;;;;;17.08;84.43;100582.91;6270702;22;20082;-82
2022/10/23 11:03:46;;;;;;;8.10;4.40;;;;;;;17.13;83.72;100592.31;6271472;22;20008;-84
2022/10/23 11:06:17;;;;;;;11.07;5.45;;;;;;;17.19;84.51;100585.59;6272037;22;20046;-83
2022/10/23 11:08:42;;;;;;;6.30;4.75;;;;;;;17.25;83.18;100589.59;6272351;22;20031;-84
2022/10/23 11:11:17;;;;;;;8.93;4.80;;;;;;;17.13;84.61;100586.06;6272447;22;20003;-84
2022/10/23 11:13:43;;;;;;;6.13;4.95;;;;;;;17.00;83.75;100586.22;6273317;22;20507;-83
2022/10/23 11:16:22;;;;;;;10.15;4.85;;;;;;;16.87;84.93;100589.06;6271907;22;19999;-82
2022/10/23 11:19:07;;;;;;;6.47;4.38;;;;;;;16.91;86.22;100601.28;6273384;22;20018;-82
2022/10/23 11:21:54;;;;;;;6.65;3.97;;;;;;;17.11;85.52;100583.53;6275860;22;20413;-83
2022/10/23 11:25:06;;;;;;;6.93;4.35;;;;;;;17.34;84.96;100578.91;6273724;22;20023;-83